Time;durP1;ratioP1;P1;durP2;ratioP2;P2;SDS_P1;SDS_P2;PMS_P1;PMS_P2;Temp;Humidity;BMP_temperature;BMP_pressure;BME280_temperature;BME280_humidity;BME280_pressure;Samples;Min_cycle;Max_cycle;Signal;HPM_P1;HPM_P2
2022/08/15 00:00:43;;;;;;;6.43;5.80;;;25.20;53.50;;;;;;5045230;28;20299;-85
2022/08/15 00:03:33;;;;;;;5.55;5.15;;;25.30;53.60;;;;;;5040341;28;20185;-89
2022/08/15 00:06:04;;;;;;;9.38;5.88;;;25.20;53.40;;;;;;5041764;28;20213;-88
2022/08/15 00:08:33;;;;;;;7.45;5.97;;;25.20;53.40;;;;;;5035769;28;20185;-86
2022/08/15 00:11:06;;;;;;;6.20;5.43;;;25.20;53.70;;;;;;5044946;28;20185;-86
2022/08/15 00:13:32;;;;;;;5.80;5.35;;;25.10;54.10;;;;;;5048702;28;20214;-86
2022/08/15 00:15:57;;;;;;;7.07;5.38;;;25.20;53.90;;;;;;5027376;28;20273;-87
2022/08/15 00:18:26;;;;;;;6.20;5.35;;;25.20;53.90;;;;;;5035828;28;20220;-85
2022/08/15 00:20:53;;;;;;;6.25;5.45;;;25.10;53.90;;;;;;5038280;28;20694;-86
2022/08/15 00:23:22;;;;;;;6.00;5.40;;;25.00;54.10;;;;;;5041134;28;20178;-84
2022/08/15 00:25:50;;;;;;;6.97;6.05;;;25.00;54.30;;;;;;5035600;28;20660;-85
2022/08/15 00:28:16;;;;;;;6.15;5.55;;;25.00;54.40;;;;;;5036769;28;20215;-85
2022/08/15 00:30:44;;;;;;;10.35;5.72;;;25.00;54.30;;;;;;5028001;28;20300;-86
2022/08/15 00:33:12;;;;;;;6.15;5.65;;;24.90;54.40;;;;;;5032680;28;20209;-87
2022/08/15 00:35:41;;;;;;;5.97;5.47;;;25.00;54.80;;;;;;5036846;28;20185;-87
2022/08/15 00:38:16;;;;;;;6.55;5.80;;;24.90;54.00;;;;;;5043457;28;20166;-84
2022/08/15 00:43:32;;;;;;;5.75;5.35;;;24.90;54.20;;;;;;5054760;28;20219;-91
2022/08/15 00:46:03;;;;;;;6.32;5.65;;;24.90;54.40;;;;;;5057905;28;20192;-90
2022/08/15 00:48:41;;;;;;;6.43;5.80;;;24.80;54.30;;;;;;5044193;28;20186;-87
2022/08/15 00:51:20;;;;;;;8.45;5.60;;;24.70;54.80;;;;;;5029014;28;20207;-86
2022/08/15 00:53:50;;;;;;;7.35;5.68;;;24.70;55.20;;;;;;5040076;28;20181;-85
2022/08/15 00:56:17;;;;;;;8.63;5.63;;;24.60;55.80;;;;;;5036634;28;20220;-86
2022/08/15 00:58:44;;;;;;;5.82;5.32;;;24.60;56.10;;;;;;5034585;28;20283;-87
2022/08/15 01:01:12;;;;;;;6.05;5.50;;;24.50;56.60;;;;;;5045134;28;20223;-85
2022/08/15 01:03:41;;;;;;;7.18;5.35;;;24.60;56.30;;;;;;5036940;28;20177;-87
2022/08/15 01:06:07;;;;;;;7.30;5.65;;;24.40;57.10;;;;;;5036595;28;20193;-87
2022/08/15 01:08:37;;;;;;;6.10;5.53;;;24.30;57.80;;;;;;5042516;28;20188;-87
2022/08/15 01:11:09;;;;;;;6.25;5.38;;;24.20;58.00;;;;;;5036480;28;20196;-87
2022/08/15 01:13:35;;;;;;;6.00;5.43;;;24.20;58.10;;;;;;5042266;28;20177;-86
2022/08/15 01:16:01;;;;;;;6.03;5.53;;;24.30;58.30;;;;;;5041370;28;20730;-87
2022/08/15 01:18:28;;;;;;;5.72;5.30;;;24.30;58.20;;;;;;5035442;28;20231;-85
2022/08/15 01:20:58;;;;;;;5.55;5.05;;;24.30;58.70;;;;;;5023803;28;20201;-87
2022/08/15 01:23:57;;;;;;;7.18;5.63;;;24.30;58.80;;;;;;5036562;28;20259;-86
2022/08/15 01:26:26;;;;;;;6.28;5.53;;;24.20;59.70;;;;;;5031295;28;20224;-84
2022/08/15 01:28:53;;;;;;;5.72;5.18;;;24.10;60.60;;;;;;5042668;28;20619;-86
2022/08/15 01:31:20;;;;;;;6.93;5.28;;;24.10;60.50;;;;;;5041580;28;20181;-86
2022/08/15 01:33:50;;;;;;;5.80;5.30;;;24.00;62.70;;;;;;5044836;28;20196;-85
2022/08/15 01:36:18;;;;;;;6.40;5.78;;;23.90;65.20;;;;;;5038342;28;20261;-89
2022/08/15 01:38:50;;;;;;;7.60;5.57;;;23.70;66.90;;;;;;5040149;28;20251;-89
2022/08/15 01:41:36;;;;;;;5.90;5.40;;;23.50;69.60;;;;;;5039153;28;20212;-85
2022/08/15 01:44:15;;;;;;;10.60;5.70;;;23.20;71.40;;;;;;5044261;28;20216;-87
2022/08/15 01:47:07;;;;;;;5.90;5.30;;;23.20;72.20;;;;;;5025364;28;20198;-86
2022/08/15 01:49:38;;;;;;;5.88;5.45;;;23.00;71.50;;;;;;5024994;28;20231;-87
2022/08/15 01:52:04;;;;;;;6.38;5.03;;;23.10;71.80;;;;;;5034552;28;20185;-88
2022/08/15 01:54:41;;;;;;;5.80;5.35;;;23.10;71.50;;;;;;5039243;28;20192;-88
2022/08/15 01:57:08;;;;;;;6.13;5.20;;;23.10;72.30;;;;;;5042990;28;20417;-85
2022/08/15 01:59:35;;;;;;;6.35;5.15;;;23.10;70.80;;;;;;5042452;28;20230;-86
2022/08/15 02:02:04;;;;;;;6.10;5.07;;;23.10;71.30;;;;;;5043015;28;20200;-85
2022/08/15 02:04:35;;;;;;;5.55;5.13;;;23.00;71.10;;;;;;5042421;28;20200;-87
2022/08/15 02:07:06;;;;;;;5.70;5.15;;;23.00;71.10;;;;;;5044266;28;20231;-87
2022/08/15 02:09:32;;;;;;;5.53;5.00;;;23.00;71.30;;;;;;5036133;28;20303;-87
2022/08/15 02:12:00;;;;;;;5.53;5.03;;;23.00;71.50;;;;;;5036043;28;20180;-86
2022/08/15 02:14:27;;;;;;;6.13;5.55;;;23.00;71.70;;;;;;5043712;28;20208;-86
2022/08/15 02:16:53;;;;;;;6.13;5.32;;;23.00;71.80;;;;;;5032168;28;20177;-88
2022/08/15 02:19:19;;;;;;;5.57;4.53;;;22.90;72.20;;;;;;5028312;28;20214;-87
2022/08/15 02:21:47;;;;;;;5.63;5.07;;;22.70;73.30;;;;;;5027839;28;20246;-85
2022/08/15 02:24:21;;;;;;;5.03;4.32;;;22.60;74.30;;;;;;5038398;28;20533;-83
2022/08/15 02:26:49;;;;;;;5.22;4.53;;;22.50;75.00;;;;;;5033110;28;20188;-88
2022/08/15 02:29:15;;;;;;;5.95;5.03;;;22.40;76.10;;;;;;5034821;28;20278;-86
2022/08/15 02:31:41;;;;;;;5.78;5.22;;;22.30;78.10;;;;;;5038424;28;20226;-86
2022/08/15 02:34:08;;;;;;;4.72;4.35;;;22.20;79.50;;;;;;5034046;28;20240;-87
2022/08/15 02:36:36;;;;;;;5.15;4.53;;;22.10;80.40;;;;;;5039188;28;20205;-87
2022/08/15 02:39:07;;;;;;;4.60;4.20;;;22.00;81.10;;;;;;5042555;28;20218;-85
2022/08/15 02:41:42;;;;;;;5.28;4.22;;;22.00;82.60;;;;;;5021940;28;20220;-87
2022/08/15 02:44:11;;;;;;;5.43;4.28;;;21.80;84.00;;;;;;5030787;28;20228;-85
2022/08/15 02:46:39;;;;;;;4.57;4.20;;;21.80;85.00;;;;;;5031427;28;20189;-88
2022/08/15 02:49:11;;;;;;;5.05;4.30;;;21.70;86.70;;;;;;5041224;28;20216;-86
2022/08/15 02:51:41;;;;;;;5.15;4.25;;;21.50;88.30;;;;;;5040432;28;20197;-87
2022/08/15 02:54:08;;;;;;;5.63;4.13;;;21.30;89.80;;;;;;5032234;28;20616;-84
2022/08/15 02:56:34;;;;;;;5.13;4.50;;;21.30;90.60;;;;;;5029003;28;20188;-87
2022/08/15 02:59:00;;;;;;;6.93;4.38;;;21.10;91.60;;;;;;5029827;28;20204;-86
2022/08/15 03:01:28;;;;;;;5.90;4.28;;;21.10;92.40;;;;;;5033077;28;20227;-86
2022/08/15 03:03:55;;;;;;;4.97;4.30;;;21.00;92.30;;;;;;5038633;28;20469;-86
2022/08/15 03:06:25;;;;;;;4.47;4.07;;;21.00;93.00;;;;;;5041029;28;20184;-86
2022/08/15 03:08:52;;;;;;;4.75;4.00;;;21.00;92.60;;;;;;5038640;28;20204;-88
2022/08/15 03:11:18;;;;;;;5.50;4.22;;;21.10;92.70;;;;;;5041691;28;20177;-88
2022/08/15 03:13:44;;;;;;;4.95;3.92;;;21.00;92.10;;;;;;5041715;28;20185;-85
2022/08/15 03:16:11;;;;;;;4.68;4.28;;;21.00;93.00;;;;;;5037892;28;20188;-86
2022/08/15 03:18:41;;;;;;;4.75;4.22;;;21.00;92.10;;;;;;5040744;28;20287;-86
2022/08/15 03:21:10;;;;;;;4.55;4.18;;;21.00;92.00;;;;;;5030831;28;20198;-86
2022/08/15 03:23:36;;;;;;;4.28;3.97;;;21.10;91.30;;;;;;5027410;28;20239;-85
2022/08/15 03:26:04;;;;;;;4.43;4.05;;;21.10;91.80;;;;;;5036644;28;20189;-85
2022/08/15 03:28:32;;;;;;;4.80;4.05;;;21.00;92.00;;;;;;5038227;28;20559;-86
2022/08/15 03:31:02;;;;;;;6.13;4.32;;;21.20;91.40;;;;;;5030703;28;20190;-86
2022/08/15 03:33:28;;;;;;;4.47;4.10;;;21.20;90.60;;;;;;5041018;28;20208;-90
2022/08/15 03:35:55;;;;;;;4.63;4.22;;;21.30;90.90;;;;;;5049045;28;20192;-87
2022/08/15 03:38:21;;;;;;;5.13;4.35;;;21.20;90.90;;;;;;5040365;28;20199;-84
2022/08/15 03:40:50;;;;;;;4.53;4.13;;;21.20;91.70;;;;;;5034900;28;20237;-86
2022/08/15 03:43:26;;;;;;;6.35;4.15;;;21.10;91.90;;;;;;5038160;28;20209;-84
2022/08/15 03:46:04;;;;;;;4.85;4.43;;;21.00;92.40;;;;;;5022894;28;20157;-85
2022/08/15 03:48:34;;;;;;;5.03;4.10;;;21.10;92.30;;;;;;5032310;28;20189;-87
2022/08/15 03:51:01;;;;;;;6.07;4.30;;;21.20;91.70;;;;;;5028402;28;20195;-85
2022/08/15 03:53:30;;;;;;;4.43;4.03;;;21.30;91.40;;;;;;5037154;28;20237;-86
2022/08/15 03:55:58;;;;;;;5.05;4.55;;;21.30;91.50;;;;;;5029547;28;20252;-85
2022/08/15 03:58:24;;;;;;;4.53;4.13;;;21.20;91.80;;;;;;5040901;28;20192;-88
2022/08/15 04:00:49;;;;;;;4.50;4.10;;;21.20;92.00;;;;;;5036283;28;20276;-86
2022/08/15 04:03:18;;;;;;;6.30;4.25;;;21.00;92.80;;;;;;5038100;28;20178;-85
2022/08/15 04:05:51;;;;;;;5.00;4.57;;;21.00;93.00;;;;;;5031996;28;20172;-86
2022/08/15 04:08:20;;;;;;;4.55;4.15;;;21.00;93.20;;;;;;5038645;28;20208;-85
2022/08/15 04:10:50;;;;;;;4.60;4.20;;;21.00;92.70;;;;;;5039435;28;20787;-87
2022/08/15 04:13:18;;;;;;;4.50;4.20;;;21.00;92.90;;;;;;5032037;28;20211;-87
2022/08/15 04:15:45;;;;;;;4.65;4.20;;;21.10;92.80;;;;;;5040285;28;20184;-88
2022/08/15 04:18:10;;;;;;;4.32;3.92;;;20.90;93.30;;;;;;5039316;28;20185;-87
2022/08/15 04:20:37;;;;;;;5.00;4.20;;;20.90;92.80;;;;;;5038348;28;20236;-88
2022/08/15 04:23:04;;;;;;;4.88;4.40;;;21.00;93.30;;;;;;5039403;28;20455;-85
2022/08/15 04:25:36;;;;;;;4.72;4.32;;;20.90;94.00;;;;;;5040861;28;20192;-85
2022/08/15 04:28:05;;;;;;;4.60;4.20;;;20.90;94.00;;;;;;5034773;28;20173;-85
2022/08/15 04:30:37;;;;;;;5.05;4.65;;;20.80;93.90;;;;;;5035383;28;20201;-85
2022/08/15 04:33:12;;;;;;;4.50;4.05;;;20.90;94.10;;;;;;5036100;28;20205;-87
2022/08/15 04:35:41;;;;;;;4.72;4.32;;;20.90;93.70;;;;;;5034514;28;20212;-86
2022/08/15 04:38:08;;;;;;;5.18;4.68;;;21.00;93.30;;;;;;5038664;28;20182;-89
2022/08/15 04:40:34;;;;;;;4.63;3.92;;;20.90;93.60;;;;;;5037756;28;20761;-86
2022/08/15 04:43:00;;;;;;;4.57;4.18;;;20.90;93.00;;;;;;5040572;28;20262;-85
2022/08/15 04:45:30;;;;;;;5.68;4.25;;;21.00;92.70;;;;;;5036223;28;20181;-86
2022/08/15 04:47:56;;;;;;;4.65;3.88;;;21.10;91.80;;;;;;5038785;28;20182;-87
2022/08/15 04:50:22;;;;;;;4.10;3.80;;;21.20;91.00;;;;;;5036826;28;20224;-86
2022/08/15 04:52:55;;;;;;;3.60;3.30;;;21.30;90.20;;;;;;5041562;28;20178;-87
2022/08/15 04:55:24;;;;;;;5.32;3.65;;;21.30;89.80;;;;;;5032485;28;20211;-85
2022/08/15 04:57:53;;;;;;;3.70;3.42;;;21.30;90.50;;;;;;5034504;28;20190;-85
2022/08/15 05:00:21;;;;;;;4.45;3.67;;;21.30;90.60;;;;;;5032694;28;20213;-84
2022/08/15 05:03:06;;;;;;;4.13;3.72;;;21.30;89.70;;;;;;5035585;28;20194;-86
2022/08/15 05:05:34;;;;;;;3.90;3.50;;;21.40;90.30;;;;;;5017209;28;20191;-87
2022/08/15 05:08:02;;;;;;;3.72;3.42;;;21.30;89.30;;;;;;5030321;28;20744;-87
2022/08/15 05:10:28;;;;;;;3.85;3.55;;;21.30;88.70;;;;;;5030868;28;20210;-85
2022/08/15 05:12:54;;;;;;;4.75;3.95;;;21.30;88.60;;;;;;5035581;28;20210;-86
2022/08/15 05:15:21;;;;;;;3.53;3.33;;;21.30;88.60;;;;;;5026125;28;20313;-86
2022/08/15 05:17:48;;;;;;;3.42;3.20;;;21.20;88.60;;;;;;5036965;28;20206;-84
2022/08/15 05:20:17;;;;;;;3.75;3.45;;;21.30;87.90;;;;;;5028310;28;20214;-87
2022/08/15 05:23:01;;;;;;;5.75;3.65;;;21.30;87.50;;;;;;5030534;28;20189;-84
2022/08/15 05:25:28;;;;;;;3.88;3.58;;;21.30;87.50;;;;;;5028728;28;20663;-85
2022/08/15 05:27:55;;;;;;;3.88;3.58;;;21.30;87.30;;;;;;5022919;28;20680;-85
2022/08/15 05:30:22;;;;;;;3.50;3.20;;;21.40;86.30;;;;;;5029772;28;20212;-86
2022/08/15 05:32:59;;;;;;;5.45;3.85;;;21.50;86.20;;;;;;5032523;28;20549;-85
2022/08/15 05:35:25;;;;;;;4.57;3.83;;;21.60;85.30;;;;;;5039735;28;20181;-86
2022/08/15 05:37:51;;;;;;;4.95;3.90;;;21.50;86.40;;;;;;5032644;28;20246;-88
2022/08/15 05:40:17;;;;;;;4.50;4.00;;;21.40;86.00;;;;;;5032983;28;20213;-85
2022/08/15 05:42:54;;;;;;;3.97;3.58;;;21.40;86.00;;;;;;5034499;28;20239;-88
2022/08/15 05:45:37;;;;;;;3.95;3.65;;;21.50;85.60;;;;;;5030649;28;20194;-85
2022/08/15 05:48:22;;;;;;;4.30;3.40;;;21.30;86.30;;;;;;5023310;28;20179;-86
2022/08/15 05:50:57;;;;;;;3.80;3.50;;;21.20;87.20;;;;;;5037888;28;20257;-86
2022/08/15 05:53:31;;;;;;;4.05;3.47;;;21.20;87.30;;;;;;5041933;28;20193;-86
2022/08/15 05:56:30;;;;;;;3.83;3.53;;;21.20;87.80;;;;;;5038235;28;20186;-87
2022/08/15 05:59:05;;;;;;;4.10;3.35;;;21.20;87.90;;;;;;5035122;28;20211;-86
2022/08/15 06:02:01;;;;;;;4.10;3.70;;;21.30;87.80;;;;;;5034711;28;20561;-86
2022/08/15 06:05:10;;;;;;;4.28;3.60;;;21.20;88.20;;;;;;5030288;28;20255;-85
2022/08/15 06:07:39;;;;;;;3.70;3.40;;;21.20;88.60;;;;;;5011344;28;20697;-86
2022/08/15 06:10:13;;;;;;;6.38;3.70;;;21.30;87.90;;;;;;5034852;28;20764;-86
2022/08/15 06:12:47;;;;;;;3.90;3.60;;;21.20;88.20;;;;;;5044264;28;20301;-86
2022/08/15 06:15:20;;;;;;;6.28;4.00;;;21.10;88.80;;;;;;5049280;28;20207;-84
2022/08/15 06:17:52;;;;;;;4.00;3.60;;;21.20;89.00;;;;;;5041496;28;20182;-83
2022/08/15 06:20:21;;;;;;;6.38;4.20;;;21.20;88.40;;;;;;5041445;28;20210;-86
2022/08/15 06:23:07;;;;;;;5.00;4.03;;;21.00;88.90;;;;;;5040582;28;20177;-83
2022/08/15 06:26:13;;;;;;;4.28;3.88;;;20.90;89.00;;;;;;5051670;28;20190;-84
2022/08/15 06:29:07;;;;;;;4.00;3.67;;;20.90;89.30;;;;;;4974045;28;20198;-87
2022/08/15 06:31:38;;;;;;;4.05;3.72;;;20.90;89.80;;;;;;5031863;28;20205;-87
2022/08/15 06:34:40;;;;;;;4.38;3.97;;;21.00;88.80;;;;;;5034128;28;20173;-83
2022/08/15 06:37:20;;;;;;;4.03;3.72;;;21.20;87.70;;;;;;5034069;28;20742;-85
2022/08/15 06:40:02;;;;;;;4.40;4.00;;;21.20;87.50;;;;;;5035561;28;20651;-85
2022/08/15 06:42:30;;;;;;;4.13;3.80;;;21.30;87.90;;;;;;5035766;28;20174;-86
2022/08/15 06:45:01;;;;;;;4.03;3.63;;;21.10;88.60;;;;;;5038943;28;20228;-85
2022/08/15 06:47:28;;;;;;;6.82;4.13;;;20.90;89.50;;;;;;5035146;28;20181;-86
2022/08/15 06:50:03;;;;;;;4.00;3.70;;;20.90;89.70;;;;;;5030212;28;20213;-87
2022/08/15 06:52:29;;;;;;;3.58;3.35;;;20.80;90.00;;;;;;5043478;28;20366;-85
2022/08/15 06:54:57;;;;;;;6.25;4.13;;;20.80;90.40;;;;;;5037806;28;20660;-85
2022/08/15 06:57:40;;;;;;;5.07;4.38;;;20.80;90.80;;;;;;5040494;28;20873;-86
2022/08/15 07:00:33;;;;;;;6.22;3.90;;;20.80;90.40;;;;;;5041493;28;20223;-86
2022/08/15 07:03:41;;;;;;;5.15;4.35;;;20.80;91.50;;;;;;5037644;28;20185;-85
2022/08/15 07:06:10;;;;;;;4.47;4.10;;;20.90;92.10;;;;;;5031970;28;20192;-86
2022/08/15 07:08:45;;;;;;;4.78;4.43;;;20.90;92.90;;;;;;5033701;28;20185;-85
2022/08/15 07:11:34;;;;;;;4.38;4.00;;;20.80;93.70;;;;;;5037561;28;20232;-86
2022/08/15 07:14:14;;;;;;;4.97;4.32;;;20.90;95.20;;;;;;5030886;28;20576;-86
2022/08/15 07:16:40;;;;;;;4.78;4.38;;;21.00;96.10;;;;;;5032001;28;20181;-87
2022/08/15 07:19:08;;;;;;;4.97;4.30;;;21.10;94.20;;;;;;5035381;28;20284;-86
2022/08/15 07:21:34;;;;;;;5.90;4.40;;;21.00;95.40;;;;;;5041900;28;20305;-85
2022/08/15 07:24:11;;;;;;;4.97;4.55;;;21.30;95.90;;;;;;5036305;28;20214;-87
2022/08/15 07:27:05;;;;;;;5.13;4.55;;;21.50;93.50;;;;;;5039001;28;20179;-87
2022/08/15 07:29:35;;;;;;;4.65;4.28;;;21.60;91.80;;;;;;5038665;28;20195;-86
2022/08/15 07:32:10;;;;;;;4.50;4.10;;;21.60;90.90;;;;;;5035826;28;20190;-86
2022/08/15 07:34:38;;;;;;;4.07;3.78;;;21.70;90.00;;;;;;5037741;28;20204;-87
2022/08/15 07:37:06;;;;;;;5.38;4.00;;;21.80;88.90;;;;;;5040289;28;20203;-86
2022/08/15 07:39:43;;;;;;;4.35;4.05;;;22.00;88.10;;;;;;5040956;28;20226;-88
2022/08/15 07:42:19;;;;;;;4.25;3.95;;;22.20;87.50;;;;;;5039699;28;20200;-86
2022/08/15 07:44:58;;;;;;;4.60;4.30;;;22.30;86.30;;;;;;5045890;28;20188;-86
2022/08/15 07:47:31;;;;;;;4.15;3.85;;;22.30;86.60;;;;;;5044726;28;20177;-88
2022/08/15 07:50:10;;;;;;;4.38;3.97;;;22.50;85.70;;;;;;5039331;28;20221;-85
2022/08/15 07:52:38;;;;;;;5.50;4.18;;;22.50;84.30;;;;;;5047609;28;20333;-85
2022/08/15 07:55:21;;;;;;;4.70;4.25;;;22.50;83.10;;;;;;5044909;28;20203;-85
2022/08/15 07:58:13;;;;;;;4.13;3.78;;;22.70;81.50;;;;;;5041561;28;20197;-85
2022/08/15 08:00:40;;;;;;;4.72;3.78;;;22.50;79.60;;;;;;5045703;28;20212;-86
2022/08/15 08:03:16;;;;;;;4.25;3.90;;;22.40;81.40;;;;;;5043366;28;20203;-86
2022/08/15 08:05:54;;;;;;;4.57;3.97;;;22.60;80.20;;;;;;5034772;28;20478;-85
2022/08/15 08:08:24;;;;;;;4.35;4.05;;;22.70;79.40;;;;;;5042886;28;20187;-85
2022/08/15 08:10:59;;;;;;;4.70;4.30;;;22.60;81.20;;;;;;5055318;28;20184;-85
2022/08/15 08:13:36;;;;;;;5.57;4.00;;;22.70;80.00;;;;;;5036325;28;20248;-85
2022/08/15 08:16:07;;;;;;;4.50;4.13;;;22.60;79.30;;;;;;5041467;28;20180;-86
2022/08/15 08:18:47;;;;;;;5.90;4.10;;;22.60;78.30;;;;;;5044388;28;20259;-86
2022/08/15 08:21:20;;;;;;;4.75;4.25;;;22.70;80.00;;;;;;5038415;28;20208;-87
2022/08/15 08:23:54;;;;;;;4.18;3.88;;;22.80;78.90;;;;;;5036456;28;20189;-83
2022/08/15 08:26:45;;;;;;;4.10;3.80;;;22.60;79.40;;;;;;5042991;28;20199;-88
2022/08/15 08:29:33;;;;;;;4.55;4.25;;;22.70;78.40;;;;;;5038017;28;20228;-86
2022/08/15 08:32:10;;;;;;;4.25;3.85;;;22.80;77.20;;;;;;5046137;28;20177;-86
2022/08/15 08:34:59;;;;;;;4.00;3.75;;;23.10;76.90;;;;;;5046812;28;20203;-85
2022/08/15 08:37:41;;;;;;;4.10;3.80;;;23.20;74.50;;;;;;5043979;28;20189;-88
2022/08/15 08:43:23;;;;;;;4.45;4.15;;;22.90;75.60;;;;;;5042075;28;20227;-85
2022/08/15 08:45:55;;;;;;;4.60;4.20;;;23.10;75.50;;;;;;5025796;28;20293;-85
2022/08/15 08:48:47;;;;;;;4.53;4.03;;;23.10;75.90;;;;;;5044752;28;20195;-86
2022/08/15 08:51:40;;;;;;;3.97;3.67;;;22.90;76.10;;;;;;5042234;28;20255;-85
2022/08/15 08:54:41;;;;;;;4.22;3.85;;;23.10;75.90;;;;;;5033656;28;20197;-86
2022/08/15 08:57:15;;;;;;;3.97;3.72;;;23.40;74.70;;;;;;5037274;28;20196;-85
2022/08/15 08:59:54;;;;;;;4.90;3.95;;;24.10;71.50;;;;;;5040952;28;20215;-85
2022/08/15 09:02:51;;;;;;;4.22;3.92;;;24.20;70.50;;;;;;5035952;28;20245;-85
2022/08/15 09:05:36;;;;;;;4.20;3.80;;;24.10;71.80;;;;;;5036548;28;20258;-84
2022/08/15 09:08:16;;;;;;;4.13;3.90;;;24.20;70.00;;;;;;5036072;28;20177;-87
2022/08/15 09:10:47;;;;;;;4.55;4.15;;;24.30;69.70;;;;;;5037226;28;20220;-85
2022/08/15 09:13:34;;;;;;;4.10;3.80;;;24.30;70.70;;;;;;5049595;28;20202;-88
2022/08/15 09:16:08;;;;;;;4.20;3.90;;;24.50;68.80;;;;;;5055854;28;20189;-84
2022/08/15 09:18:39;;;;;;;4.47;4.10;;;24.70;68.10;;;;;;5036927;28;20188;-84
2022/08/15 09:21:05;;;;;;;4.00;3.70;;;24.70;69.10;;;;;;5044092;28;20235;-85
2022/08/15 09:23:40;;;;;;;4.55;4.10;;;24.80;66.70;;;;;;5036327;28;20252;-85
2022/08/15 09:26:13;;;;;;;5.72;3.80;;;25.10;65.00;;;;;;5039234;28;20172;-86
2022/08/15 09:28:42;;;;;;;4.30;4.00;;;25.30;64.00;;;;;;5040216;28;20226;-85
2022/08/15 09:31:18;;;;;;;4.60;4.30;;;25.40;63.50;;;;;;5042304;28;20189;-84
2022/08/15 09:34:07;;;;;;;4.82;3.67;;;25.70;62.50;;;;;;5035800;28;20183;-85
2022/08/15 09:37:13;;;;;;;4.00;3.70;;;25.90;62.10;;;;;;5042210;28;20219;-86
2022/08/15 09:40:12;;;;;;;4.65;4.28;;;25.90;61.30;;;;;;5008455;28;20307;-86
2022/08/15 09:42:39;;;;;;;4.03;3.72;;;26.00;60.20;;;;;;5045533;28;20280;-86
2022/08/15 09:45:28;;;;;;;4.22;3.83;;;26.40;58.70;;;;;;5043306;28;20188;-85
2022/08/15 09:47:57;;;;;;;4.40;4.10;;;26.20;59.20;;;;;;5035400;28;20185;-85
2022/08/15 09:50:54;;;;;;;3.97;3.78;;;26.30;59.10;;;;;;5042624;28;20217;-84
2022/08/15 09:53:56;;;;;;;7.80;4.47;;;26.60;58.10;;;;;;5033912;28;20180;-85
2022/08/15 09:56:25;;;;;;;5.35;4.15;;;27.00;56.90;;;;;;5039106;28;20177;-85
2022/08/15 09:59:14;;;;;;;4.05;3.75;;;26.90;56.40;;;;;;5040277;28;20549;-83
2022/08/15 10:01:56;;;;;;;4.57;4.20;;;26.90;54.50;;;;;;5035123;28;20213;-85
2022/08/15 10:04:39;;;;;;;4.75;4.35;;;27.30;55.60;;;;;;5032290;28;20216;-85
2022/08/15 10:07:08;;;;;;;4.00;3.70;;;27.30;54.70;;;;;;5041618;28;20193;-87
2022/08/15 10:09:42;;;;;;;4.38;3.97;;;27.50;54.00;;;;;;5044785;28;20217;-85
2022/08/15 10:12:08;;;;;;;3.95;3.75;;;27.70;53.50;;;;;;5046718;28;20199;-85
2022/08/15 10:15:02;;;;;;;4.05;3.85;;;27.40;52.80;;;;;;5035741;28;20193;-86
2022/08/15 10:17:40;;;;;;;4.13;3.83;;;27.40;52.10;;;;;;5041405;28;20196;-85
2022/08/15 10:20:15;;;;;;;4.43;4.13;;;27.70;52.50;;;;;;5037077;28;20215;-86
2022/08/15 10:22:59;;;;;;;4.65;4.30;;;28.20;50.10;;;;;;5043379;28;20187;-85
2022/08/15 10:25:28;;;;;;;4.50;3.80;;;28.30;49.40;;;;;;5040738;28;20185;-84
2022/08/15 10:27:59;;;;;;;4.18;3.88;;;28.40;48.40;;;;;;5034257;28;20598;-86
2022/08/15 10:30:30;;;;;;;4.38;3.97;;;28.40;48.10;;;;;;5044538;28;20223;-87
2022/08/15 10:32:58;;;;;;;3.92;3.63;;;28.20;48.60;;;;;;5041599;28;20212;-86
2022/08/15 10:35:45;;;;;;;4.25;3.95;;;28.10;49.50;;;;;;5040258;28;20189;-86
2022/08/15 10:38:13;;;;;;;4.03;3.72;;;28.40;48.70;;;;;;5041037;28;20184;-84
2022/08/15 10:40:58;;;;;;;3.65;3.40;;;28.80;48.10;;;;;;5039876;28;20251;-84
2022/08/15 10:43:52;;;;;;;4.20;3.90;;;29.20;47.60;;;;;;5037909;28;20208;-87
2022/08/15 10:46:27;;;;;;;4.50;4.20;;;28.90;44.90;;;;;;5030195;28;20204;-85
2022/08/15 10:49:17;;;;;;;4.45;4.18;;;29.20;44.30;;;;;;5042935;28;20209;-86
2022/08/15 10:51:58;;;;;;;4.57;4.20;;;29.70;43.70;;;;;;5045202;28;20200;-85
2022/08/15 10:54:33;;;;;;;4.35;4.05;;;29.80;43.20;;;;;;5038694;28;20263;-85
2022/08/15 10:56:59;;;;;;;4.15;3.90;;;29.80;42.90;;;;;;5034250;28;20569;-86
2022/08/15 10:59:34;;;;;;;4.10;3.90;;;29.70;42.70;;;;;;5035377;28;20206;-86
2022/08/15 11:02:34;;;;;;;4.18;3.97;;;30.00;43.00;;;;;;5037936;28;20219;-85
2022/08/15 11:05:06;;;;;;;4.95;4.47;;;30.40;43.20;;;;;;5033585;28;20196;-86
2022/08/15 11:07:35;;;;;;;4.65;4.35;;;30.30;42.30;;;;;;5041101;28;20189;-85
2022/08/15 11:10:09;;;;;;;4.80;4.20;;;30.40;42.20;;;;;;5032968;28;20200;-85
2022/08/15 11:12:40;;;;;;;4.82;4.43;;;30.20;43.90;;;;;;5040219;28;20644;-86
2022/08/15 11:15:28;;;;;;;4.75;4.43;;;30.60;41.90;;;;;;5038157;28;20391;-85
2022/08/15 11:18:03;;;;;;;4.82;4.53;;;30.60;41.70;;;;;;5036049;28;20219;-85
2022/08/15 11:20:42;;;;;;;4.82;4.53;;;30.30;42.30;;;;;;5043991;28;20218;-87
2022/08/15 11:23:09;;;;;;;5.38;4.43;;;30.30;42.40;;;;;;5034801;28;20192;-85
2022/08/15 11:25:40;;;;;;;5.10;4.80;;;30.10;42.90;;;;;;5028417;28;20684;-87
2022/08/15 11:28:12;;;;;;;5.10;4.70;;;30.00;43.50;;;;;;5038391;28;20197;-86
2022/08/15 11:30:41;;;;;;;4.97;4.68;;;29.90;42.10;;;;;;5041691;28;20212;-85
2022/08/15 11:33:26;;;;;;;4.97;4.57;;;30.00;42.10;;;;;;5041113;28;20283;-86
2022/08/15 11:36:10;;;;;;;5.07;4.78;;;30.60;40.70;;;;;;5038042;28;20177;-85
2022/08/15 11:38:40;;;;;;;4.82;4.50;;;31.10;39.60;;;;;;5041349;28;20181;-87
2022/08/15 11:41:06;;;;;;;5.38;4.75;;;31.20;39.20;;;;;;5036953;28;20228;-86
2022/08/15 11:43:32;;;;;;;5.28;4.43;;;31.20;38.70;;;;;;5043684;28;20560;-87
2022/08/15 11:45:59;;;;;;;4.82;4.43;;;31.10;38.70;;;;;;5041664;28;20185;-88
2022/08/15 11:48:36;;;;;;;4.60;4.40;;;30.60;39.20;;;;;;5043359;28;20200;-87
2022/08/15 11:51:22;;;;;;;5.03;4.70;;;30.80;39.10;;;;;;5036072;28;20211;-86
2022/08/15 11:54:12;;;;;;;4.53;4.22;;;30.70;39.10;;;;;;5037470;28;20193;-87
2022/08/15 11:56:44;;;;;;;4.93;4.60;;;31.40;38.10;;;;;;5032593;28;20268;-86
2022/08/15 11:59:19;;;;;;;4.90;4.60;;;32.00;37.00;;;;;;5032828;28;20232;-85
2022/08/15 12:02:05;;;;;;;5.15;4.85;;;31.90;36.40;;;;;;5048337;28;20209;-85
2022/08/15 12:04:33;;;;;;;4.55;4.25;;;31.50;37.60;;;;;;5037080;28;20176;-86
2022/08/15 12:07:20;;;;;;;5.20;4.80;;;31.70;36.90;;;;;;5038121;28;20185;-86
2022/08/15 12:09:59;;;;;;;4.95;4.65;;;31.40;36.60;;;;;;5030775;28;20206;-85
2022/08/15 12:12:29;;;;;;;5.05;4.75;;;31.90;36.00;;;;;;5034956;28;20248;-85
2022/08/15 12:15:18;;;;;;;5.15;4.85;;;31.70;36.60;;;;;;5038387;28;20185;-85
2022/08/15 12:18:08;;;;;;;4.85;4.45;;;31.60;36.60;;;;;;5043475;28;20223;-86
2022/08/15 12:20:54;;;;;;;5.13;4.70;;;31.80;35.70;;;;;;5042620;28;20227;-87
2022/08/15 12:23:30;;;;;;;4.78;4.47;;;31.80;35.80;;;;;;5041751;28;20185;-86
2022/08/15 12:26:08;;;;;;;5.95;5.35;;;32.20;35.60;;;;;;5041486;28;20211;-86
2022/08/15 12:28:35;;;;;;;4.95;4.60;;;31.70;35.50;;;;;;5040119;28;20271;-87
2022/08/15 12:31:33;;;;;;;5.78;5.38;;;31.60;36.30;;;;;;5039715;28;20189;-85
2022/08/15 12:34:21;;;;;;;5.25;4.82;;;31.20;37.20;;;;;;5046710;28;20181;-86
2022/08/15 12:36:47;;;;;;;5.05;4.72;;;31.30;37.10;;;;;;5046753;28;20211;-85
2022/08/15 12:39:15;;;;;;;5.50;5.10;;;31.50;35.50;;;;;;5036129;28;20267;-85
2022/08/15 12:41:45;;;;;;;5.40;5.05;;;31.50;36.10;;;;;;5038119;28;20219;-87
2022/08/15 12:44:34;;;;;;;5.28;4.90;;;32.10;36.60;;;;;;5035492;28;20173;-86
2022/08/15 12:47:00;;;;;;;5.55;5.15;;;32.70;34.20;;;;;;5036833;28;20288;-86
2022/08/15 12:49:25;;;;;;;6.80;5.15;;;33.20;33.90;;;;;;5047166;28;20324;-87
2022/08/15 12:51:52;;;;;;;5.82;5.40;;;33.30;33.70;;;;;;5043665;28;20289;-86
2022/08/15 12:54:18;;;;;;;5.05;4.75;;;33.30;33.70;;;;;;5038554;28;20189;-86
2022/08/15 12:56:44;;;;;;;5.40;5.05;;;33.50;33.10;;;;;;5038920;28;20219;-86
2022/08/15 12:59:12;;;;;;;5.90;5.38;;;33.40;33.30;;;;;;5045169;28;20204;-85
2022/08/15 13:01:40;;;;;;;6.00;5.45;;;33.10;33.60;;;;;;5030581;28;20297;-87
2022/08/15 13:04:10;;;;;;;5.80;5.30;;;32.40;34.80;;;;;;5048869;28;20216;-86
2022/08/15 13:06:55;;;;;;;5.15;4.85;;;31.70;35.80;;;;;;5042932;28;20280;-85
2022/08/15 13:09:25;;;;;;;5.15;4.85;;;31.60;36.50;;;;;;5034015;28;20265;-87
2022/08/15 13:11:51;;;;;;;7.20;5.80;;;31.20;37.60;;;;;;5043624;28;20186;-85
2022/08/15 13:14:18;;;;;;;6.03;5.45;;;30.70;38.60;;;;;;5041692;28;20284;-86
2022/08/15 13:16:46;;;;;;;6.15;5.68;;;29.80;42.00;;;;;;5035712;28;20256;-86
2022/08/15 13:19:21;;;;;;;6.32;5.82;;;29.40;42.80;;;;;;5030989;28;20224;-85
2022/08/15 13:24:31;;;;;;;4.82;4.43;;;28.60;44.60;;;;;;5037380;28;20197;-85
2022/08/15 13:26:59;;;;;;;4.53;4.13;;;28.10;45.80;;;;;;5047297;28;20189;-87
2022/08/15 13:29:25;;;;;;;5.80;4.53;;;27.60;46.90;;;;;;5042650;28;20572;-86
2022/08/15 13:31:52;;;;;;;5.50;5.10;;;27.20;49.20;;;;;;5042722;28;20660;-88